Time;durP1;ratioP1;P1;durP2;ratioP2;P2;SDS_P1;SDS_P2;PMS_P1;PMS_P2;Temp;Humidity;BMP_temperature;BMP_pressure;BME280_temperature;BME280_humidity;BME280_pressure;Samples;Min_cycle;Max_cycle;Signal;HPM_P1;HPM_P2
2022/05/13 00:01:08;;;;;;;18.50;3.90;;;;;;;16.85;70.94;100544.20;1749809;82;20921;-43
2022/05/13 00:03:35;;;;;;;11.87;4.03;;;;;;;16.79;70.74;100545.31;1749987;82;21823;-43
2022/05/13 00:06:02;;;;;;;8.78;3.60;;;;;;;16.73;70.49;100553.42;1749718;82;20980;-43
2022/05/13 00:08:28;;;;;;;20.75;3.85;;;;;;;16.68;70.52;100550.16;1749734;82;21474;-43
2022/05/13 00:10:56;;;;;;;13.78;3.75;;;;;;;16.62;70.67;100552.13;1749805;82;21004;-43
2022/05/13 00:13:23;;;;;;;10.58;3.70;;;;;;;16.57;71.13;100559.75;1749847;82;20877;-43
2022/05/13 00:15:50;;;;;;;9.38;3.35;;;;;;;16.50;72.21;100562.63;1717504;82;21133;-43
2022/05/13 00:18:17;;;;;;;15.03;3.95;;;;;;;16.44;74.13;100569.87;1749721;82;20976;-43
2022/05/13 00:20:45;;;;;;;14.25;3.65;;;;;;;16.36;74.90;100575.40;1749716;82;20944;-43
2022/05/13 00:23:12;;;;;;;17.05;4.25;;;;;;;16.26;75.34;100580.14;1749720;82;20913;-43
2022/05/13 00:25:39;;;;;;;13.15;3.98;;;;;;;16.21;76.29;100576.88;1749768;80;20928;-43
2022/05/13 00:28:07;;;;;;;12.93;4.42;;;;;;;16.19;76.68;100560.42;1749829;82;21818;-43
2022/05/13 00:30:37;;;;;;;18.60;4.00;;;;;;;16.15;76.84;100537.48;1749561;81;21443;-43
2022/05/13 00:33:05;;;;;;;8.73;3.60;;;;;;;16.11;76.74;100515.03;1743085;81;21036;-43
2022/05/13 00:35:33;;;;;;;14.15;3.83;;;;;;;16.03;76.72;100492.31;1715851;82;20949;-43
2022/05/13 00:37:59;;;;;;;8.48;4.08;;;;;;;15.92;77.01;100485.77;1736726;82;21418;-43
2022/05/13 00:40:26;;;;;;;10.98;3.45;;;;;;;15.82;77.45;100491.39;1736738;82;21177;-43
2022/05/13 00:42:59;;;;;;;10.98;3.87;;;;;;;15.72;78.02;100489.59;1736360;81;20874;-43
2022/05/13 00:45:26;;;;;;;16.40;4.75;;;;;;;15.59;78.12;100499.19;1736017;82;20934;-43
2022/05/13 00:47:52;;;;;;;19.50;4.00;;;;;;;15.46;78.68;100518.37;1739982;82;20981;-44
2022/05/13 00:50:19;;;;;;;9.90;3.58;;;;;;;15.34;79.89;100530.59;1736128;82;20936;-43
2022/05/13 00:52:48;;;;;;;30.85;4.30;;;;;;;15.25;81.12;100530.47;1735921;82;21191;-43
2022/05/13 00:55:23;;;;;;;18.10;3.95;;;;;;;15.14;81.53;100528.25;1715449;82;21482;-43
2022/05/13 00:57:50;;;;;;;14.25;4.28;;;;;;;15.02;82.33;100522.16;1736320;82;20886;-43
2022/05/13 01:00:18;;;;;;;13.40;3.85;;;;;;;14.86;83.10;100522.73;1715395;82;20933;-43
2022/05/13 01:02:45;;;;;;;20.48;5.15;;;;;;;14.72;83.73;100528.86;1736062;82;21534;-43
2022/05/13 01:05:13;;;;;;;11.40;4.87;;;;;;;14.62;85.00;100529.59;1736016;81;21518;-43
2022/05/13 01:07:41;;;;;;;16.80;3.70;;;;;;;14.50;85.38;100516.09;1736029;82;20849;-43
2022/05/13 01:10:13;;;;;;;15.13;4.15;;;;;;;14.37;85.35;100511.75;1736041;82;20845;-43
2022/05/13 01:12:42;;;;;;;16.17;4.08;;;;;;;14.28;85.25;100523.79;1735845;81;21554;-43
2022/05/13 01:15:14;;;;;;;14.75;4.12;;;;;;;14.17;85.39;100529.34;1735975;82;20893;-43
2022/05/13 01:20:31;;;;;;;13.05;4.30;;;;;;;14.06;88.44;100523.17;1736175;82;21412;-42
2022/05/13 01:23:12;;;;;;;14.35;4.40;;;;;;;13.97;88.74;100520.02;1715154;82;20976;-43
2022/05/13 01:25:43;;;;;;;12.10;3.92;;;;;;;13.89;88.69;100522.41;1735980;82;21491;-42
2022/05/13 01:28:15;;;;;;;17.65;4.62;;;;;;;13.80;88.96;100520.08;1736041;82;20890;-43
2022/05/13 01:30:45;;;;;;;11.90;4.03;;;;;;;13.74;89.98;100530.68;1735682;82;21143;-43
2022/05/13 01:33:12;;;;;;;16.02;4.08;;;;;;;13.69;90.81;100539.08;1741605;81;21718;-43
2022/05/13 01:35:43;;;;;;;21.00;4.62;;;;;;;13.57;91.54;100537.23;1749913;82;21030;-43
2022/05/13 01:38:10;;;;;;;20.43;4.50;;;;;;;13.47;92.20;100544.44;1749911;82;20826;-43
2022/05/13 01:40:36;;;;;;;17.27;3.80;;;;;;;13.38;92.40;100553.79;1749939;80;20908;-43
2022/05/13 01:43:03;;;;;;;10.38;3.58;;;;;;;13.31;91.72;100557.47;1750039;82;21257;-43
2022/05/13 01:45:31;;;;;;;12.25;3.50;;;;;;;13.23;90.81;100549.41;1749972;82;21304;-43
2022/05/13 01:47:58;;;;;;;23.75;3.22;;;;;;;13.15;90.22;100540.98;1749880;80;20964;-43
2022/05/13 01:50:26;;;;;;;10.15;3.62;;;;;;;13.06;89.65;100538.20;1750072;82;20940;-42
2022/05/13 01:52:55;;;;;;;9.23;4.65;;;;;;;13.02;90.93;100555.23;1749942;82;20928;-42
2022/05/13 01:55:23;;;;;;;20.48;4.75;;;;;;;13.00;93.67;100552.66;1749636;82;22088;-42
2022/05/13 01:57:50;;;;;;;15.88;4.28;;;;;;;12.92;94.39;100550.72;1749993;82;21429;-43
2022/05/13 02:00:18;;;;;;;18.55;4.47;;;;;;;12.84;94.74;100550.05;1750034;82;20932;-43
2022/05/13 02:05:30;;;;;;;14.53;4.42;;;;;;;12.65;95.26;100553.98;1750307;82;20936;-41
2022/05/13 02:07:58;;;;;;;15.25;5.00;;;;;;;12.58;95.83;100556.34;1750296;82;21565;-42
2022/05/13 02:10:24;;;;;;;17.50;4.15;;;;;;;12.52;96.31;100561.70;1722312;82;21011;-42
2022/05/13 02:12:51;;;;;;;17.12;4.25;;;;;;;12.43;96.74;100567.09;1749886;82;20925;-42
2022/05/13 02:15:17;;;;;;;22.73;5.05;;;;;;;12.38;97.33;100568.52;1749965;82;20959;-42
2022/05/13 02:17:44;;;;;;;8.25;3.67;;;;;;;12.33;97.79;100567.76;1749936;82;20921;-42
2022/05/13 02:20:11;;;;;;;9.58;4.30;;;;;;;12.28;98.28;100569.62;1749924;82;22238;-42
2022/05/13 02:22:38;;;;;;;18.42;5.90;;;;;;;12.22;98.68;100557.62;1750264;82;20965;-42
2022/05/13 02:25:07;;;;;;;16.95;4.53;;;;;;;12.17;98.94;100562.95;1722346;82;20893;-42
2022/05/13 02:27:34;;;;;;;14.25;4.25;;;;;;;12.15;99.00;100567.75;1749850;82;21426;-41
2022/05/13 02:30:01;;;;;;;15.90;4.37;;;;;;;12.10;99.00;100562.66;1749892;82;20880;-42
2022/05/13 02:32:30;;;;;;;12.65;5.37;;;;;;;12.10;98.94;100561.83;1722819;82;21230;-42
2022/05/13 02:34:58;;;;;;;9.93;4.37;;;;;;;12.06;98.98;100563.63;1749890;82;21451;-43
2022/05/13 02:37:24;;;;;;;15.63;4.87;;;;;;;12.04;99.34;100566.27;1749969;82;20908;-43
2022/05/13 02:39:52;;;;;;;16.77;4.65;;;;;;;12.04;99.92;100567.56;1749882;82;20901;-43
2022/05/13 02:42:18;;;;;;;14.07;4.40;;;;;;;12.04;100.00;100574.05;1749982;82;20924;-43
2022/05/13 02:44:45;;;;;;;15.00;4.70;;;;;;;12.07;100.00;100571.81;1750228;82;21475;-42
2022/05/13 02:47:12;;;;;;;15.90;4.50;;;;;;;12.11;100.00;100568.72;1749925;82;21515;-42
2022/05/13 02:49:38;;;;;;;9.95;4.37;;;;;;;12.14;100.00;100569.94;1722340;82;20952;-42
2022/05/13 02:52:06;;;;;;;17.52;4.67;;;;;;;12.15;100.00;100571.64;1749871;80;20991;-43
2022/05/13 02:54:33;;;;;;;12.07;4.80;;;;;;;12.17;100.00;100575.05;1750066;82;21396;-42
2022/05/13 02:57:00;;;;;;;7.87;3.87;;;;;;;12.20;100.00;100582.77;1749950;82;21325;-42
2022/05/13 02:59:27;;;;;;;11.60;4.20;;;;;;;12.25;100.00;100589.16;1750165;82;21379;-43
2022/05/13 03:01:54;;;;;;;9.95;3.90;;;;;;;12.28;100.00;100588.66;1722407;82;20988;-43
2022/05/13 03:04:22;;;;;;;9.95;3.60;;;;;;;12.33;100.00;100595.88;1749940;81;20960;-42
2022/05/13 03:06:50;;;;;;;8.48;3.62;;;;;;;12.38;100.00;100603.57;1749698;82;20884;-43
2022/05/13 03:09:16;;;;;;;9.38;3.62;;;;;;;12.45;100.00;100601.66;1722753;82;21573;-43
2022/05/13 03:11:44;;;;;;;19.32;4.08;;;;;;;12.54;100.00;100603.19;1749769;82;20991;-43
2022/05/13 03:14:11;;;;;;;9.65;3.70;;;;;;;12.65;100.00;100608.98;1722276;82;21337;-43
2022/05/13 03:16:39;;;;;;;12.05;3.95;;;;;;;12.77;99.67;100605.23;1750009;82;21522;-43
2022/05/13 03:19:05;;;;;;;10.65;3.37;;;;;;;12.92;99.13;100605.28;1749978;81;20877;-42
2022/05/13 03:21:32;;;;;;;17.80;4.50;;;;;;;13.07;98.44;100606.63;1749981;82;21317;-42
2022/05/13 03:23:59;;;;;;;11.53;4.08;;;;;;;13.23;97.72;100605.77;1749786;82;20976;-42
2022/05/13 03:26:26;;;;;;;11.90;4.25;;;;;;;13.40;97.14;100614.86;1722287;82;21359;-42
2022/05/13 03:28:52;;;;;;;10.30;3.62;;;;;;;13.53;96.36;100611.03;1749996;82;20971;-42
2022/05/13 03:31:19;;;;;;;20.35;3.70;;;;;;;13.68;95.69;100616.70;1750006;82;20936;-44
2022/05/13 03:33:46;;;;;;;9.58;3.00;;;;;;;13.82;94.76;100615.84;1749834;81;21212;-43
2022/05/13 03:36:14;;;;;;;6.78;3.80;;;;;;;13.93;93.99;100621.59;1722317;82;20948;-42
2022/05/13 03:38:41;;;;;;;12.88;3.87;;;;;;;14.04;93.20;100619.97;1749974;82;20967;-42
2022/05/13 03:41:10;;;;;;;15.90;4.42;;;;;;;14.16;92.36;100628.30;1749674;82;20964;-42
2022/05/13 03:43:37;;;;;;;21.70;4.30;;;;;;;14.28;92.10;100637.05;1749741;82;20928;-43
2022/05/13 03:46:04;;;;;;;12.90;3.72;;;;;;;14.44;91.81;100633.94;1749858;82;21195;-43
2022/05/13 03:48:32;;;;;;;15.25;3.70;;;;;;;14.68;91.74;100647.08;1749892;82;20837;-43
2022/05/13 03:50:59;;;;;;;16.90;4.00;;;;;;;14.93;91.33;100637.58;1750123;81;20980;-43
2022/05/13 03:53:25;;;;;;;11.28;3.12;;;;;;;15.23;90.64;100633.98;1749835;82;21015;-43
2022/05/13 03:55:52;;;;;;;10.03;3.60;;;;;;;15.55;89.94;100640.27;1749868;81;20980;-42
2022/05/13 03:58:18;;;;;;;9.80;3.47;;;;;;;15.86;88.64;100644.34;1749986;82;21221;-43
2022/05/13 04:00:46;;;;;;;12.47;3.92;;;;;;;16.15;88.45;100648.94;1749916;82;20952;-42
2022/05/13 04:03:13;;;;;;;20.12;4.05;;;;;;;16.42;87.82;100643.53;1749943;82;20896;-43
2022/05/13 04:11:11;;;;;;;13.30;3.70;;;;;;;17.30;85.29;100653.43;1750247;82;21227;-43
2022/05/13 04:16:22;;;;;;;15.53;3.70;;;;;;;17.53;83.19;100662.43;1750068;82;20913;-43
2022/05/13 04:18:50;;;;;;;12.45;3.30;;;;;;;17.65;82.00;100661.51;1749948;82;21462;-43
2022/05/13 04:21:20;;;;;;;14.43;3.47;;;;;;;17.73;79.19;100663.31;1750021;81;21014;-43
2022/05/13 04:23:49;;;;;;;12.63;3.40;;;;;;;17.86;78.69;100670.63;1722532;82;21823;-43
2022/05/13 04:26:16;;;;;;;5.25;2.75;;;;;;;17.93;75.20;100668.94;1749840;82;20928;-43
2022/05/13 04:28:48;;;;;;;8.65;2.70;;;;;;;18.04;73.45;100682.05;1750096;82;20964;-43
2022/05/13 04:31:17;;;;;;;10.63;3.25;;;;;;;18.08;73.05;100692.32;1749954;82;21012;-43
2022/05/13 04:33:44;;;;;;;7.67;2.60;;;;;;;18.14;72.54;100693.78;1749978;82;21410;-43
2022/05/13 04:36:11;;;;;;;5.87;2.58;;;;;;;18.14;72.29;100691.64;1749957;82;21157;-43
2022/05/13 04:38:38;;;;;;;6.40;2.87;;;;;;;18.14;72.26;100692.95;1750012;82;20869;-43
2022/05/13 04:43:51;;;;;;;8.25;2.55;;;;;;;18.12;72.01;100694.31;1750087;82;21455;-43
2022/05/13 04:46:18;;;;;;;9.48;3.40;;;;;;;18.14;71.29;100699.02;1749965;82;20929;-43
2022/05/13 04:48:47;;;;;;;15.08;2.90;;;;;;;18.20;69.99;100693.97;1749945;82;21148;-42
2022/05/13 04:51:14;;;;;;;15.88;3.20;;;;;;;18.23;68.70;100709.09;1749901;82;21036;-43
2022/05/13 04:53:40;;;;;;;8.98;3.08;;;;;;;18.16;68.62;100698.97;1749979;81;20881;-43
2022/05/13 04:56:08;;;;;;;5.42;3.10;;;;;;;18.12;69.58;100700.03;1722648;82;21545;-44
2022/05/13 04:58:34;;;;;;;13.58;3.58;;;;;;;18.19;69.98;100704.92;1750028;82;21588;-42
2022/05/13 05:01:02;;;;;;;9.30;3.10;;;;;;;18.27;69.68;100711.09;1750017;82;21195;-43
2022/05/13 05:03:29;;;;;;;6.85;3.20;;;;;;;18.30;69.49;100716.19;1749795;82;20896;-44
2022/05/13 05:05:57;;;;;;;8.20;3.10;;;;;;;18.24;68.51;100704.69;1749966;82;20992;-44
2022/05/13 05:08:24;;;;;;;5.12;2.95;;;;;;;18.15;69.75;100701.20;1749785;81;20928;-44
2022/05/13 05:10:52;;;;;;;5.15;3.47;;;;;;;18.20;69.38;100708.37;1749981;82;20979;-44
2022/05/13 05:13:25;;;;;;;13.50;3.00;;;;;;;18.21;69.02;100710.07;1750029;82;21137;-43
2022/05/13 05:15:52;;;;;;;7.28;3.25;;;;;;;18.22;70.20;100717.88;1749777;82;20932;-43
2022/05/13 05:18:18;;;;;;;12.75;3.25;;;;;;;18.30;69.06;100724.52;1750083;82;20995;-43
2022/05/13 05:20:46;;;;;;;15.20;3.62;;;;;;;18.36;68.56;100721.16;1749968;82;20987;-43
2022/05/13 05:23:19;;;;;;;10.60;3.62;;;;;;;18.48;68.05;100726.73;1750009;82;20949;-43
2022/05/13 05:25:46;;;;;;;7.37;3.83;;;;;;;18.69;68.35;100730.08;1750019;82;21154;-43
2022/05/13 05:28:13;;;;;;;6.25;2.87;;;;;;;18.93;64.47;100731.13;1749966;82;20956;-43
2022/05/13 05:30:40;;;;;;;12.33;3.33;;;;;;;18.91;62.17;100729.91;1749998;82;20885;-43
2022/05/13 05:33:07;;;;;;;7.45;3.58;;;;;;;18.90;62.07;100729.52;1749808;80;20980;-43
2022/05/13 05:35:33;;;;;;;11.63;3.30;;;;;;;18.99;62.22;100730.02;1737970;81;20881;-42
2022/05/13 05:38:00;;;;;;;14.28;3.50;;;;;;;19.04;61.38;100729.31;1735997;82;21148;-42
2022/05/13 05:40:27;;;;;;;5.75;3.30;;;;;;;19.04;61.45;100725.38;1735996;82;20976;-43
2022/05/13 05:42:53;;;;;;;6.72;3.05;;;;;;;19.13;60.76;100730.19;1735839;82;21546;-42
2022/05/13 05:45:21;;;;;;;12.03;3.40;;;;;;;19.27;60.22;100726.00;1735989;82;20933;-43
2022/05/13 05:47:48;;;;;;;4.20;2.98;;;;;;;19.33;60.35;100733.59;1715038;82;20969;-43
2022/05/13 05:50:18;;;;;;;9.83;3.37;;;;;;;19.36;59.79;100732.95;1735951;82;21246;-42
2022/05/13 05:52:47;;;;;;;23.83;4.67;;;;;;;19.34;60.17;100732.18;1735755;82;20973;-43
2022/05/13 05:58:09;;;;;;;12.90;3.50;;;;;;;19.16;59.63;100732.66;1736022;82;20949;-43
2022/05/13 06:00:41;;;;;;;9.43;3.25;;;;;;;19.14;60.68;100737.12;1736144;82;20885;-43
2022/05/13 06:03:08;;;;;;;6.97;2.95;;;;;;;19.15;60.58;100740.14;1735931;82;21870;-43
2022/05/13 06:05:34;;;;;;;5.65;3.27;;;;;;;19.15;60.49;100751.08;1735976;82;20917;-44
2022/05/13 06:08:02;;;;;;;12.10;3.40;;;;;;;19.09;60.16;100748.33;1735903;82;20936;-43
2022/05/13 06:10:31;;;;;;;10.25;3.45;;;;;;;19.14;60.80;100762.50;1715503;82;20901;-45
2022/05/13 06:12:58;;;;;;;10.08;3.72;;;;;;;19.14;59.41;100762.05;1736016;82;20928;-43
2022/05/13 06:15:25;;;;;;;10.68;3.10;;;;;;;19.12;60.64;100765.22;1735831;81;21363;-43
2022/05/13 06:17:54;;;;;;;12.82;3.62;;;;;;;19.16;60.36;100761.52;1735997;82;21028;-43
2022/05/13 06:20:25;;;;;;;5.28;3.42;;;;;;;19.32;61.03;100752.85;1735885;82;20929;-43
2022/05/13 06:22:52;;;;;;;7.90;3.30;;;;;;;19.58;60.20;100752.84;1736006;82;21028;-43
2022/05/13 06:25:22;;;;;;;13.10;3.83;;;;;;;19.74;58.70;100756.00;1735887;82;21033;-43
2022/05/13 06:27:50;;;;;;;9.25;3.05;;;;;;;19.69;57.62;100757.55;1736309;82;21138;-44
2022/05/13 06:30:21;;;;;;;6.40;3.25;;;;;;;19.63;58.17;100753.45;1736219;82;20988;-45
2022/05/13 06:32:49;;;;;;;14.05;4.03;;;;;;;19.84;58.73;100756.37;1735815;82;20933;-43
2022/05/13 06:35:16;;;;;;;11.65;3.37;;;;;;;19.84;57.24;100754.58;1743549;81;21494;-43
2022/05/13 06:37:43;;;;;;;9.55;3.90;;;;;;;19.79;57.79;100757.44;1749851;82;21719;-44
2022/05/13 06:40:10;;;;;;;7.17;3.75;;;;;;;19.80;57.16;100755.67;1749889;82;21108;-43
2022/05/13 06:42:37;;;;;;;5.92;3.25;;;;;;;19.91;58.21;100759.08;1749507;82;21391;-44
2022/05/13 06:45:07;;;;;;;14.38;3.50;;;;;;;19.91;55.68;100769.59;1749969;82;21066;-44
2022/05/13 06:47:33;;;;;;;8.13;3.30;;;;;;;19.76;57.06;100760.70;1750174;82;20921;-43
2022/05/13 06:50:03;;;;;;;12.03;2.83;;;;;;;19.87;57.31;100754.89;1749740;81;20960;-44
2022/05/13 06:52:29;;;;;;;15.75;3.70;;;;;;;19.99;57.20;100751.63;1749897;82;21136;-43
2022/05/13 06:54:56;;;;;;;10.13;3.70;;;;;;;20.24;56.16;100748.99;1749746;82;20921;-43
2022/05/13 06:57:23;;;;;;;27.17;3.85;;;;;;;20.21;55.43;100747.84;1749798;82;20897;-43
2022/05/13 06:59:50;;;;;;;10.80;3.80;;;;;;;20.19;56.12;100745.77;1749814;82;22564;-44
2022/05/13 07:02:17;;;;;;;11.33;3.72;;;;;;;20.20;55.76;100754.03;1749958;82;20901;-44
2022/05/13 07:04:45;;;;;;;20.48;3.58;;;;;;;20.21;55.70;100751.79;1749972;82;21140;-43
2022/05/13 07:07:13;;;;;;;8.98;3.22;;;;;;;20.25;55.42;100757.25;1749888;82;21494;-44
2022/05/13 07:09:40;;;;;;;7.28;3.30;;;;;;;20.34;55.38;100755.91;1749890;82;20959;-44
2022/05/13 07:12:08;;;;;;;10.70;2.95;;;;;;;20.39;54.27;100747.30;1749803;81;21024;-44
2022/05/13 07:14:36;;;;;;;11.57;3.58;;;;;;;20.36;54.06;100749.65;1749824;82;20924;-43
2022/05/13 07:17:04;;;;;;;8.85;3.15;;;;;;;20.46;53.77;100749.13;1749872;81;21265;-44
2022/05/13 07:19:31;;;;;;;17.45;3.58;;;;;;;20.51;54.20;100753.20;1749786;82;20937;-44
2022/05/13 07:21:57;;;;;;;15.00;3.58;;;;;;;20.41;54.59;100749.86;1749889;82;20924;-44
2022/05/13 07:24:24;;;;;;;9.73;3.17;;;;;;;20.50;54.70;100755.45;1749783;81;21487;-44
2022/05/13 07:26:51;;;;;;;12.73;3.75;;;;;;;20.55;53.11;100745.98;1749781;82;20928;-43
2022/05/13 07:29:18;;;;;;;8.90;3.70;;;;;;;20.41;52.72;100757.73;1749964;80;21064;-44
2022/05/13 07:31:44;;;;;;;36.98;4.72;;;;;;;20.32;53.87;100756.46;1749578;82;20955;-44
2022/05/13 07:34:11;;;;;;;11.50;3.22;;;;;;;20.30;53.31;100753.91;1749912;82;20917;-44
2022/05/13 07:36:38;;;;;;;27.17;3.33;;;;;;;20.46;54.51;100761.82;1735808;81;20929;-43
2022/05/13 07:41:50;;;;;;;6.50;3.00;;;;;;;20.42;52.68;100762.06;1736015;82;21154;-44
2022/05/13 07:44:17;;;;;;;19.62;3.33;;;;;;;20.45;52.80;100768.47;1735863;81;20965;-44
2022/05/13 07:46:44;;;;;;;6.45;2.70;;;;;;;20.33;53.96;100762.09;1735711;81;20925;-44
2022/05/13 07:49:11;;;;;;;4.85;2.55;;;;;;;20.46;53.67;100767.53;1735933;82;21015;-44
2022/05/13 07:51:38;;;;;;;19.17;3.58;;;;;;;20.46;51.72;100750.44;1736105;82;21495;-44
2022/05/13 07:54:05;;;;;;;16.23;3.00;;;;;;;20.25;52.30;100750.69;1735926;82;21278;-43
2022/05/13 07:56:31;;;;;;;5.00;2.65;;;;;;;20.37;52.60;100763.17;1715380;82;20925;-42
2022/05/13 07:59:00;;;;;;;7.78;2.30;;;;;;;20.49;51.65;100760.33;1736170;82;21036;-42
2022/05/13 08:01:27;;;;;;;3.52;2.35;;;;;;;20.36;53.20;100775.07;1735950;81;20933;-45
2022/05/13 08:03:56;;;;;;;7.78;2.60;;;;;;;20.33;53.27;100781.81;1735963;82;20984;-44
2022/05/13 08:06:23;;;;;;;24.55;3.65;;;;;;;20.35;52.19;100774.69;1736167;82;21936;-45
2022/05/13 08:08:58;;;;;;;34.05;4.28;;;;;;;20.34;53.60;100771.23;1735892;82;20913;-45
2022/05/13 08:11:20;;;;;;;18.27;3.58;;;;;;;20.29;54.22;100778.48;1733768;82;21019;-44
2022/05/13 08:13:46;;;;;;;31.97;4.20;;;;;;;20.26;54.32;100776.03;1735854;82;20944;-44
2022/05/13 08:16:17;;;;;;;16.67;2.77;;;;;;;20.18;54.17;100772.98;1736015;81;21506;-43
2022/05/13 08:18:44;;;;;;;32.40;3.70;;;;;;;20.10;54.04;100778.19;1735621;82;21296;-44
2022/05/13 08:21:11;;;;;;;13.13;3.20;;;;;;;20.05;54.84;100781.50;1735940;82;20948;-43
2022/05/13 08:23:40;;;;;;;5.75;2.30;;;;;;;20.26;53.94;100786.55;1735885;82;20953;-43
2022/05/13 08:26:07;;;;;;;67.50;5.45;;;;;;;20.36;53.02;100786.90;1736290;82;21444;-45
2022/05/13 08:28:34;;;;;;;17.40;2.67;;;;;;;20.20;51.96;100788.20;1715002;82;20870;-45
2022/05/13 08:31:02;;;;;;;15.18;2.10;;;;;;;20.09;52.82;100788.77;1735984;82;22206;-45
2022/05/13 08:33:29;;;;;;;49.20;4.30;;;;;;;20.09;51.80;100788.77;1735885;81;21517;-44
2022/05/13 08:36:00;;;;;;;14.65;2.87;;;;;;;20.11;52.07;100779.02;1743925;81;21021;-45
2022/05/13 08:38:30;;;;;;;47.58;4.42;;;;;;;20.09;51.82;100790.09;1749614;82;20948;-45
2022/05/13 08:41:35;;;;;;;23.12;2.45;;;;;;;20.19;51.33;100791.27;1749947;82;20873;-43
2022/05/13 08:44:07;;;;;;;42.53;2.95;;;;;;;20.20;50.23;100785.09;1749981;82;21383;-43
2022/05/13 08:46:48;;;;;;;7.15;1.32;;;;;;;20.07;50.06;100779.64;1749774;81;20893;-45
2022/05/13 08:49:41;;;;;;;22.32;2.33;;;;;;;20.13;48.62;100785.05;1749582;81;21351;-45
2022/05/13 08:55:26;;;;;;;4.70;1.10;;;;;;;19.92;49.70;100783.94;1749969;82;21495;-44
2022/05/13 08:57:54;;;;;;;5.53;1.17;;;;;;;20.01;48.41;100785.23;1749784;82;21218;-44
2022/05/13 09:00:34;;;;;;;13.38;1.50;;;;;;;20.05;47.50;100782.82;1722457;82;21475;-44
2022/05/13 09:03:09;;;;;;;10.18;1.30;;;;;;;20.18;46.72;100780.86;1749756;82;20976;-44
2022/05/13 09:05:57;;;;;;;10.75;0.90;;;;;;;20.34;46.18;100776.48;1749975;82;20896;-44
2022/05/13 09:08:23;;;;;;;8.70;1.37;;;;;;;20.46;45.37;100777.59;1750200;81;20908;-44
2022/05/13 09:11:08;;;;;;;9.53;1.20;;;;;;;20.36;44.60;100770.67;1749897;81;21900;-44
2022/05/13 09:13:59;;;;;;;5.65;1.35;;;;;;;20.39;44.13;100773.58;1749785;81;20917;-43
2022/05/13 09:16:31;;;;;;;14.33;1.25;;;;;;;20.30;44.73;100777.56;1750123;82;21529;-44
2022/05/13 09:19:03;;;;;;;7.65;1.00;;;;;;;20.26;45.42;100773.41;1749081;82;20944;-44
2022/05/13 09:21:30;;;;;;;9.45;1.00;;;;;;;20.17;45.49;100776.55;1749948;82;20845;-44
2022/05/13 09:23:57;;;;;;;10.48;1.37;;;;;;;20.18;45.59;100788.75;1749756;81;21898;-44
2022/05/13 09:26:26;;;;;;;10.18;1.00;;;;;;;20.19;46.51;100790.44;1749921;82;20900;-43
2022/05/13 09:29:07;;;;;;;11.55;1.70;;;;;;;20.24;45.87;100789.73;1749950;82;20928;-45
2022/05/13 09:31:40;;;;;;;17.73;1.50;;;;;;;20.20;45.96;100800.86;1749938;82;20861;-44
2022/05/13 09:34:39;;;;;;;8.15;1.17;;;;;;;20.09;46.37;100783.06;1749464;82;20960;-44
2022/05/13 09:37:14;;;;;;;9.35;1.57;;;;;;;20.23;47.16;100782.77;1736896;81;21589;-43
2022/05/13 09:39:44;;;;;;;10.82;1.37;;;;;;;20.36;46.86;100779.87;1735745;82;21022;-43
2022/05/13 09:42:26;;;;;;;13.43;1.05;;;;;;;20.52;46.04;100788.22;1735724;82;20893;-43
2022/05/13 09:45:27;;;;;;;6.45;0.78;;;;;;;20.38;46.05;100791.16;1736004;82;21000;-43
2022/05/13 09:48:14;;;;;;;6.72;1.07;;;;;;;20.25;46.19;100809.81;1736073;82;20917;-43
2022/05/13 09:50:48;;;;;;;3.40;0.95;;;;;;;20.14;45.04;100790.68;1735839;81;21112;-43
2022/05/13 09:53:29;;;;;;;16.48;1.57;;;;;;;19.89;44.57;100811.64;1736071;82;20894;-43
2022/05/13 09:55:58;;;;;;;3.55;0.90;;;;;;;19.79;44.46;100796.83;1735941;82;20948;-43
2022/05/13 09:58:37;;;;;;;15.53;0.82;;;;;;;19.66;45.48;100814.16;1735953;82;20933;-43
2022/05/13 10:01:11;;;;;;;3.60;1.20;;;;;;;19.70;44.11;100817.45;1736063;82;20862;-43
2022/05/13 10:03:38;;;;;;;31.65;1.75;;;;;;;19.70;44.62;100805.64;1735880;82;21245;-44
2022/05/13 10:06:17;;;;;;;4.35;1.00;;;;;;;19.77;43.29;100809.67;1735813;81;20952;-45
2022/05/13 10:08:57;;;;;;;10.90;1.02;;;;;;;19.82;42.54;100800.60;1736083;82;20929;-44
2022/05/13 10:14:31;;;;;;;44.53;3.22;;;;;;;19.73;41.71;100807.66;1735934;81;20985;-45
2022/05/13 10:17:21;;;;;;;7.28;0.95;;;;;;;19.62;42.21;100806.06;1735830;81;21765;-44
2022/05/13 10:19:54;;;;;;;9.85;0.82;;;;;;;19.78;41.27;100806.12;1734667;81;20980;-45
2022/05/13 10:22:36;;;;;;;9.50;0.60;;;;;;;19.91;41.94;100815.55;1736023;82;21020;-44
2022/05/13 10:25:10;;;;;;;8.90;1.12;;;;;;;20.03;40.98;100799.61;1736047;82;21459;-44
2022/05/13 10:27:45;;;;;;;5.35;0.60;;;;;;;20.09;40.22;100808.02;1735931;81;21612;-45
2022/05/13 10:30:17;;;;;;;14.97;1.00;;;;;;;20.16;39.87;100802.44;1736235;82;21193;-44
2022/05/13 10:33:19;;;;;;;4.42;0.65;;;;;;;20.24;40.72;100822.58;1735812;82;21515;-45
2022/05/13 10:36:18;;;;;;;29.32;1.90;;;;;;;20.35;39.97;100816.75;1735911;81;21031;-44
2022/05/13 10:38:57;;;;;;;14.83;0.88;;;;;;;20.36;40.51;100810.55;1735899;82;21013;-44
2022/05/13 10:41:44;;;;;;;15.80;0.72;;;;;;;20.51;39.45;100803.61;1735723;82;20881;-44
2022/05/13 10:44:58;;;;;;;6.03;0.60;;;;;;;20.59;39.78;100798.80;1735792;82;22095;-44
2022/05/13 10:47:45;;;;;;;14.10;0.98;;;;;;;20.85;36.61;100793.89;1735906;82;20933;-45
2022/05/13 10:50:22;;;;;;;101.72;5.83;;;;;;;20.74;38.13;100786.58;1735835;82;21459;-45
2022/05/13 10:53:26;;;;;;;8.93;0.95;;;;;;;20.77;37.79;100790.80;1735795;82;21456;-44
2022/05/13 10:56:08;;;;;;;5.42;0.45;;;;;;;20.89;37.98;100786.20;1735933;82;21012;-43
2022/05/13 10:58:52;;;;;;;5.15;0.68;;;;;;;21.03;36.35;100792.45;1735792;81;21809;-44
2022/05/13 11:01:40;;;;;;;5.47;0.45;;;;;;;20.88;36.03;100777.94;1735912;81;20933;-44
2022/05/13 11:04:35;;;;;;;8.18;0.72;;;;;;;20.84;36.80;100768.98;1735857;82;20980;-44
2022/05/13 11:07:26;;;;;;;4.30;0.60;;;;;;;21.12;37.25;100783.18;1735984;82;20865;-44
2022/05/13 11:10:17;;;;;;;5.85;0.60;;;;;;;21.51;36.34;100768.63;1725012;82;20946;-45
2022/05/13 11:13:18;;;;;;;16.30;1.30;;;;;;;21.66;34.22;100771.67;1727198;82;21158;-45
2022/05/13 11:15:59;;;;;;;112.60;8.58;;;;;;;21.80;35.06;100769.52;1710366;83;21035;-45
2022/05/13 11:19:01;;;;;;;43.23;3.10;;;;;;;21.99;34.28;100767.08;1722570;81;20960;-44
2022/05/13 11:21:51;;;;;;;10.50;1.17;;;;;;;22.10;35.02;100767.27;1736297;82;20917;-46
2022/05/13 11:27:56;;;;;;;24.55;1.87;;;;;;;22.11;33.46;100777.33;1732631;82;21156;-44
2022/05/13 11:30:34;;;;;;;82.10;4.90;;;;;;;21.90;34.22;100780.83;1735937;82;21023;-45
2022/05/13 11:33:11;;;;;;;5.22;0.70;;;;;;;22.01;34.79;100777.53;1735926;81;21518;-45
2022/05/13 11:35:58;;;;;;;4.47;1.67;;;;;;;22.08;33.19;100769.62;1684363;81;20989;-45
2022/05/13 11:38:39;;;;;;;10.25;1.27;;;;;;;22.24;32.46;100767.73;1749195;82;20925;-45
2022/05/13 11:41:11;;;;;;;5.97;0.80;;;;;;;22.23;32.44;100759.90;1749373;82;21919;-45
2022/05/13 11:44:00;;;;;;;14.65;1.62;;;;;;;21.96;31.83;100771.22;1749633;82;20972;-45
2022/05/13 11:46:38;;;;;;;5.78;0.70;;;;;;;21.66;33.17;100776.11;1735461;82;21016;-44
2022/05/13 11:51:51;;;;;;;7.22;0.72;;;;;;;21.78;33.85;100762.66;1798313;79;22632;-44
2022/05/13 11:54:25;;;;;;;3.12;1.12;;;;;;;21.77;32.76;100760.48;1758212;81;20999;-44
2022/05/13 11:57:23;;;;;;;5.00;0.80;;;;;;;21.65;33.90;100761.24;1697864;83;21344;-45
2022/05/13 12:00:15;;;;;;;5.40;0.70;;;;;;;21.61;33.31;100759.22;1724534;83;20967;-45
2022/05/13 12:03:13;;;;;;;11.05;1.57;;;;;;;21.63;33.41;100756.02;1724531;83;20912;-46
2022/05/13 12:06:07;;;;;;;6.70;1.27;;;;;;;21.56;33.09;100741.54;1724676;83;20903;-44
2022/05/13 12:08:44;;;;;;;17.32;1.40;;;;;;;21.53;33.24;100743.88;1724677;83;21537;-44
2022/05/13 12:12:07;;;;;;;8.23;1.37;;;;;;;21.50;33.25;100738.80;1724550;83;21111;-44
2022/05/13 12:15:13;;;;;;;4.75;1.37;;;;;;;21.49;34.48;100742.86;1724518;83;20974;-45